createdAt,value
2019-04-30T00:01:55.864Z,31.52
2019-04-30T00:04:37.242Z,30.72
2019-04-30T00:07:15.559Z,30.23
2019-04-30T00:09:49.210Z,29.12
2019-04-30T00:12:25.727Z,31.68
2019-04-30T00:15:01.453Z,29.30
2019-04-30T00:17:38.444Z,28.87
2019-04-30T00:20:15.149Z,30.43
2019-04-30T00:22:51.062Z,27.27
2019-04-30T00:25:28.556Z,26.50
2019-04-30T00:28:05.281Z,29.67
2019-04-30T00:30:43.888Z,27.50
2019-04-30T00:33:22.152Z,28.42
2019-04-30T00:35:57.931Z,27.52
2019-04-30T00:38:34.258Z,27.52
2019-04-30T00:41:10.919Z,29.07
2019-04-30T00:43:49.345Z,29.70
2019-04-30T00:46:25.479Z,27.55
2019-04-30T00:49:09.022Z,30.92
2019-04-30T00:51:37.605Z,28.05
2019-04-30T00:54:13.076Z,28.38
2019-04-30T00:56:48.471Z,26.68
2019-04-30T00:59:25.014Z,27.02
2019-04-30T01:02:32.259Z,25.17
2019-04-30T01:05:12.418Z,26.55
2019-04-30T01:07:51.560Z,26.25
2019-04-30T01:10:28.305Z,24.45
2019-04-30T01:13:08.043Z,26.05
2019-04-30T01:15:39.102Z,23.40
2019-04-30T01:18:14.552Z,22.77
2019-04-30T01:20:49.905Z,24.92
2019-04-30T01:23:25.404Z,23.18
2019-04-30T01:26:01.376Z,25.32
2019-04-30T01:28:38.602Z,23.22
2019-04-30T01:31:14.085Z,24.72
2019-04-30T01:33:49.570Z,23.83
2019-04-30T01:36:25.044Z,23.83
2019-04-30T01:39:00.465Z,23.12
2019-04-30T01:41:35.856Z,28.83
2019-04-30T01:44:12.148Z,23.80
2019-04-30T01:46:51.709Z,28.55
2019-04-30T01:49:26.738Z,27.42
2019-04-30T01:52:02.681Z,27.02
2019-04-30T01:54:39.108Z,27.80
2019-04-30T01:57:35.071Z,30.52
2019-04-30T02:00:20.892Z,28.42
2019-04-30T02:02:56.245Z,27.00
2019-04-30T02:05:31.649Z,31.52
2019-04-30T02:08:09.768Z,29.02
2019-04-30T02:10:45.299Z,27.75
2019-04-30T02:13:20.673Z,30.30
2019-04-30T02:15:56.128Z,26.97
2019-04-30T02:18:31.518Z,27.77
2019-04-30T02:21:06.923Z,27.30
2019-04-30T02:23:45.275Z,29.30
2019-04-30T02:26:20.771Z,25.45
2019-04-30T02:28:56.132Z,26.50
2019-04-30T02:31:31.568Z,26.60
2019-04-30T02:34:34.627Z,26.20
2019-04-30T02:37:16.684Z,25.70
2019-04-30T02:39:52.059Z,26.37
2019-04-30T02:42:29.760Z,23.60
2019-04-30T02:45:05.966Z,25.65
2019-04-30T02:47:41.395Z,27.60
2019-04-30T02:50:19.831Z,26.68
2019-04-30T02:52:55.092Z,25.77
2019-04-30T02:55:43.790Z,28.45
2019-04-30T02:58:21.074Z,25.88
2019-04-30T03:00:56.294Z,25.45
2019-04-30T03:03:31.749Z,25.17
2019-04-30T03:06:07.128Z,26.20
2019-04-30T03:08:42.591Z,27.07
2019-04-30T03:11:26.799Z,27.10
2019-04-30T03:14:02.181Z,23.15
2019-04-30T03:16:52.322Z,26.37
2019-04-30T03:19:31.449Z,28.77
2019-04-30T03:22:13.881Z,26.40
2019-04-30T03:24:50.057Z,28.17
2019-04-30T03:27:26.698Z,24.70
2019-04-30T03:30:02.121Z,26.80
2019-04-30T03:32:43.135Z,24.20
2019-04-30T03:35:15.722Z,27.75
2019-04-30T03:37:51.100Z,26.35
2019-04-30T03:40:26.540Z,26.02
2019-04-30T03:43:03.177Z,24.27
2019-04-30T03:45:40.257Z,26.42
2019-04-30T03:48:16.040Z,26.20
2019-04-30T03:50:56.642Z,27.80
2019-04-30T03:53:29.829Z,25.30
2019-04-30T03:56:05.332Z,26.90
2019-04-30T03:58:40.800Z,27.40
2019-04-30T04:01:29.727Z,27.10
2019-04-30T04:04:24.035Z,28.73
2019-04-30T04:07:16.206Z,27.45
2019-04-30T04:09:59.911Z,29.18
2019-04-30T04:12:35.421Z,27.55
2019-04-30T04:15:11.011Z,27.07
2019-04-30T04:17:46.449Z,30.10
2019-04-30T04:20:21.899Z,28.05
2019-04-30T04:22:59.680Z,29.07
2019-04-30T04:25:34.412Z,29.05
2019-04-30T04:28:10.204Z,28.02
2019-04-30T04:31:00.133Z,27.48
2019-04-30T04:33:39.559Z,27.82
2019-04-30T04:36:14.351Z,28.23
2019-04-30T04:38:50.723Z,29.57
2019-04-30T04:41:26.270Z,31.30
2019-04-30T04:44:01.797Z,32.48
2019-04-30T04:46:40.063Z,29.07
2019-04-30T04:49:14.440Z,32.00
2019-04-30T04:51:49.751Z,29.72
2019-04-30T04:54:25.088Z,27.70
2019-04-30T04:57:14.023Z,28.75
2019-04-30T04:59:39.382Z,30.60
2019-04-30T05:02:51.519Z,29.00
2019-04-30T05:05:26.841Z,29.25
2019-04-30T05:08:02.259Z,29.82
2019-04-30T05:10:39.207Z,31.20
2019-04-30T05:13:14.737Z,31.57
2019-04-30T05:15:51.578Z,31.62
2019-04-30T05:18:28.997Z,32.40
2019-04-30T05:21:04.037Z,30.37
2019-04-30T05:23:42.369Z,31.17
2019-04-30T05:26:16.368Z,29.57
2019-04-30T05:28:52.973Z,32.73
2019-04-30T05:31:28.958Z,35.38
2019-04-30T05:34:06.397Z,31.90
2019-04-30T05:36:41.603Z,36.50
2019-04-30T05:39:18.739Z,33.10
2019-04-30T05:41:53.978Z,33.98
2019-04-30T05:44:29.816Z,37.40
2019-04-30T05:47:06.218Z,37.05
2019-04-30T05:49:41.610Z,34.48
2019-04-30T05:52:19.928Z,33.90
2019-04-30T05:54:55.040Z,40.35
2019-04-30T05:57:30.551Z,38.60
2019-04-30T06:00:07.104Z,35.95
2019-04-30T06:02:42.724Z,37.78
2019-04-30T06:05:18.794Z,42.50
2019-04-30T06:07:55.476Z,42.88
2019-04-30T06:10:49.578Z,41.75
2019-04-30T06:13:28.803Z,37.93
2019-04-30T06:16:16.192Z,39.63
2019-04-30T06:18:52.598Z,39.75
2019-04-30T06:21:29.474Z,38.38
2019-04-30T06:24:04.945Z,38.50
2019-04-30T06:26:50.100Z,39.35
2019-04-30T06:29:25.655Z,37.40
2019-04-30T06:32:01.292Z,38.05
2019-04-30T06:34:39.473Z,40.58
2019-04-30T06:37:14.387Z,40.08
2019-04-30T06:39:50.185Z,37.15
2019-04-30T06:42:25.655Z,37.55
2019-04-30T06:45:01.517Z,38.75
2019-04-30T06:47:38.904Z,40.20
2019-04-30T06:50:15.201Z,40.52
2019-04-30T06:52:56.743Z,39.92
2019-04-30T06:55:30.641Z,36.83
2019-04-30T06:58:14.164Z,40.95
2019-04-30T07:00:42.790Z,36.63
2019-04-30T07:03:19.161Z,36.10
2019-04-30T07:05:54.794Z,35.08
2019-04-30T07:08:57.032Z,37.17
2019-04-30T07:11:35.594Z,38.10
2019-04-30T07:14:10.949Z,36.93
2019-04-30T07:16:46.395Z,36.15
2019-04-30T07:19:31.981Z,36.98
2019-04-30T07:22:01.538Z,35.98
2019-04-30T07:24:36.948Z,38.98
2019-04-30T07:27:12.476Z,34.00
2019-04-30T07:29:49.510Z,37.88
2019-04-30T07:32:25.067Z,40.23
2019-04-30T07:35:00.554Z,42.67
2019-04-30T07:37:35.937Z,42.13
2019-04-30T07:40:11.676Z,40.52
2019-04-30T07:42:49.006Z,38.23
2019-04-30T07:45:25.713Z,41.35
2019-04-30T07:48:01.445Z,40.38
2019-04-30T07:50:37.479Z,38.05
2019-04-30T07:53:13.958Z,38.42
2019-04-30T07:55:49.543Z,37.63
2019-04-30T07:58:25.023Z,40.00
2019-04-30T08:01:00.539Z,37.73
2019-04-30T08:04:12.976Z,37.15
2019-04-30T08:06:49.914Z,35.92
2019-04-30T08:09:25.412Z,37.65
2019-04-30T08:12:00.829Z,35.50
2019-04-30T08:14:36.443Z,36.08
2019-04-30T08:17:11.895Z,37.15
2019-04-30T08:19:48.956Z,36.03
2019-04-30T08:22:24.606Z,37.17
2019-04-30T08:25:00.050Z,39.13
2019-04-30T08:27:35.433Z,37.35
2019-04-30T08:30:22.899Z,38.70
2019-04-30T08:32:49.964Z,35.83
2019-04-30T08:35:25.202Z,36.23
2019-04-30T08:38:00.650Z,37.00
2019-04-30T08:40:36.056Z,34.95
2019-04-30T08:43:11.611Z,33.18
2019-04-30T08:45:48.868Z,32.28
2019-04-30T08:48:24.342Z,33.53
2019-04-30T08:50:59.837Z,33.78
2019-04-30T08:53:36.222Z,36.33
2019-04-30T08:56:11.655Z,34.80
2019-04-30T08:58:48.939Z,35.52
2019-04-30T09:01:24.235Z,39.35
2019-04-30T09:03:59.886Z,38.88
2019-04-30T09:06:38.491Z,41.50
2019-04-30T09:09:18.611Z,41.00
2019-04-30T09:11:55.754Z,38.17
2019-04-30T09:14:30.548Z,37.28
2019-04-30T09:17:06.023Z,36.48
2019-04-30T09:19:41.537Z,41.40
2019-04-30T09:22:17.040Z,36.68
2019-04-30T09:24:52.357Z,36.83
2019-04-30T09:27:29.665Z,34.63
2019-04-30T09:30:05.459Z,37.15
2019-04-30T09:32:40.965Z,34.92
2019-04-30T09:35:16.347Z,38.55
2019-04-30T09:37:58.930Z,39.23
2019-04-30T09:40:32.176Z,38.25
2019-04-30T09:43:06.033Z,36.25
2019-04-30T09:45:41.379Z,35.63
2019-04-30T09:48:18.815Z,31.05
2019-04-30T09:50:54.079Z,30.62
2019-04-30T09:53:31.779Z,33.70
2019-04-30T09:56:09.428Z,33.53
2019-04-30T09:58:44.410Z,30.68
2019-04-30T10:01:22.013Z,32.93
2019-04-30T10:03:59.376Z,34.05
2019-04-30T10:06:39.698Z,38.17
2019-04-30T10:09:13.435Z,40.10
2019-04-30T10:11:54.382Z,39.35
2019-04-30T10:14:29.810Z,39.08
2019-04-30T10:17:27.006Z,40.15
2019-04-30T10:20:02.449Z,36.38
2019-04-30T10:22:39.889Z,41.73
2019-04-30T10:25:15.199Z,40.28
2019-04-30T10:27:51.275Z,40.03
2019-04-30T10:30:30.804Z,39.35
2019-04-30T10:33:06.727Z,34.58
2019-04-30T10:35:42.227Z,35.85
2019-04-30T10:38:19.385Z,35.55
2019-04-30T10:40:54.600Z,31.52
2019-04-30T10:43:32.050Z,38.28
2019-04-30T10:46:07.319Z,31.07
2019-04-30T10:48:43.436Z,34.45
2019-04-30T10:51:20.141Z,35.10
2019-04-30T10:53:55.509Z,37.23
2019-04-30T10:56:30.979Z,37.08
2019-04-30T10:59:06.435Z,34.90
2019-04-30T11:01:41.809Z,31.25
2019-04-30T11:04:19.263Z,35.33
2019-04-30T11:06:54.719Z,34.20
2019-04-30T11:09:31.035Z,29.75
2019-04-30T11:12:07.085Z,31.00
2019-04-30T11:14:42.787Z,32.73
2019-04-30T11:17:19.741Z,32.78
2019-04-30T11:19:56.483Z,33.05
2019-04-30T11:22:32.049Z,31.00
2019-04-30T11:25:09.765Z,31.05
2019-04-30T11:27:45.124Z,31.25
2019-04-30T11:30:24.390Z,27.80
2019-04-30T11:32:58.961Z,28.55
2019-04-30T11:35:34.632Z,28.05
2019-04-30T11:38:10.379Z,29.32
2019-04-30T11:40:48.586Z,32.03
2019-04-30T11:43:24.014Z,31.48
2019-04-30T11:46:28.555Z,29.92
2019-04-30T11:49:03.687Z,31.55
2019-04-30T11:51:39.322Z,31.45
2019-04-30T11:54:14.940Z,31.20
2019-04-30T11:56:50.518Z,31.33
2019-04-30T11:59:26.120Z,31.33
2019-04-30T12:02:03.413Z,30.27
2019-04-30T12:04:39.361Z,29.60
2019-04-30T12:07:21.642Z,31.17
2019-04-30T12:10:19.435Z,29.37
2019-04-30T12:12:54.855Z,28.25
2019-04-30T12:15:30.289Z,27.70
2019-04-30T12:18:05.787Z,31.15
2019-04-30T12:20:41.205Z,32.42
2019-04-30T12:23:16.667Z,32.80
2019-04-30T12:25:52.014Z,31.17
2019-04-30T12:28:27.965Z,31.17
2019-04-30T12:31:05.998Z,32.95
2019-04-30T12:33:42.507Z,29.25
2019-04-30T12:36:18.891Z,33.60
2019-04-30T12:38:54.317Z,32.30
2019-04-30T12:41:29.644Z,30.75
2019-04-30T12:44:05.075Z,34.35
2019-04-30T12:46:40.478Z,34.73
2019-04-30T12:49:15.925Z,33.30
2019-04-30T12:52:22.187Z,32.63
2019-04-30T12:55:01.829Z,30.25
2019-04-30T12:57:58.303Z,33.15
2019-04-30T13:00:29.373Z,31.17
2019-04-30T13:03:05.028Z,32.80
2019-04-30T13:05:40.434Z,33.83
2019-04-30T13:08:16.558Z,31.20
2019-04-30T13:10:52.939Z,30.27
2019-04-30T13:13:31.463Z,32.58
2019-04-30T13:16:05.700Z,30.52
2019-04-30T13:18:41.354Z,34.27
2019-04-30T13:21:18.368Z,30.88
2019-04-30T13:23:53.930Z,31.23
2019-04-30T13:26:29.271Z,30.65
2019-04-30T13:29:18.443Z,33.02
2019-04-30T13:31:53.866Z,32.30
2019-04-30T13:35:00.996Z,32.85
2019-04-30T13:37:43.337Z,35.08
2019-04-30T13:40:39.056Z,31.90
2019-04-30T13:43:15.083Z,33.00
2019-04-30T13:45:51.874Z,33.05
2019-04-30T13:48:27.325Z,33.42
2019-04-30T13:51:02.711Z,36.28
2019-04-30T13:53:39.509Z,35.73
2019-04-30T13:56:15.243Z,34.20
2019-04-30T13:58:50.744Z,33.15
2019-04-30T14:01:26.401Z,31.93
2019-04-30T14:04:23.491Z,34.63
2019-04-30T14:07:17.843Z,34.53
2019-04-30T14:09:53.331Z,29.82
2019-04-30T14:12:30.426Z,36.73
2019-04-30T14:15:06.297Z,33.65
2019-04-30T14:17:41.923Z,34.73
2019-04-30T14:20:17.465Z,31.25
2019-04-30T14:22:52.931Z,33.35
2019-04-30T14:25:29.017Z,26.33
2019-04-30T14:28:04.431Z,31.48
2019-04-30T14:30:39.850Z,36.48
2019-04-30T14:33:25.575Z,35.60
2019-04-30T14:35:52.308Z,33.55
2019-04-30T14:38:27.801Z,36.65
2019-04-30T14:41:03.904Z,34.80
2019-04-30T14:43:48.353Z,34.15
2019-04-30T14:46:43.810Z,32.30
2019-04-30T14:49:56.451Z,33.13
2019-04-30T14:52:22.948Z,35.52
2019-04-30T14:55:18.763Z,32.53
2019-04-30T14:58:13.354Z,33.98
2019-04-30T15:00:59.335Z,35.15
2019-04-30T15:03:34.939Z,33.78
2019-04-30T15:06:10.435Z,44.05
2019-04-30T15:08:46.130Z,40.40
2019-04-30T15:11:21.554Z,41.65
2019-04-30T15:13:59.027Z,44.88
2019-04-30T15:16:34.120Z,43.25
2019-04-30T15:19:09.565Z,42.17
2019-04-30T15:21:44.924Z,42.43
2019-04-30T15:24:35.233Z,41.83
2019-04-30T15:27:10.657Z,47.15
2019-04-30T15:29:45.958Z,44.77
2019-04-30T15:32:21.463Z,46.23
2019-04-30T15:34:58.772Z,47.03
2019-04-30T15:37:33.832Z,44.83
2019-04-30T15:40:09.317Z,44.18
2019-04-30T15:42:46.549Z,42.88
2019-04-30T15:45:23.061Z,44.90
2019-04-30T15:47:58.578Z,49.67
2019-04-30T15:50:33.983Z,42.70
2019-04-30T15:53:09.745Z,44.77
2019-04-30T15:55:45.149Z,48.63
2019-04-30T15:58:24.822Z,44.25
2019-04-30T16:01:00.260Z,45.10
2019-04-30T16:03:36.944Z,47.70
2019-04-30T16:06:21.227Z,47.62
2019-04-30T16:08:58.650Z,42.50
2019-04-30T16:11:49.346Z,44.53
2019-04-30T16:14:30.965Z,45.85
2019-04-30T16:17:14.525Z,45.15
2019-04-30T16:19:50.073Z,45.90
2019-04-30T16:22:25.440Z,45.20
2019-04-30T16:25:00.939Z,44.98
2019-04-30T16:27:36.348Z,43.98
2019-04-30T16:30:11.860Z,45.78
2019-04-30T16:32:50.476Z,46.00
2019-04-30T16:35:24.538Z,47.17
2019-04-30T16:37:59.970Z,45.80
2019-04-30T16:40:38.637Z,49.15
2019-04-30T16:43:14.161Z,47.33
2019-04-30T16:45:49.808Z,46.90
2019-04-30T16:48:25.271Z,42.88
2019-04-30T16:51:00.928Z,44.80
2019-04-30T16:53:36.220Z,41.45
2019-04-30T16:56:11.675Z,46.60
2019-04-30T16:58:59.393Z,40.00
2019-04-30T17:01:36.107Z,43.70
2019-04-30T17:04:20.485Z,41.35
2019-04-30T17:07:11.913Z,38.17
2019-04-30T17:10:09.036Z,40.17
2019-04-30T17:13:00.705Z,40.45
2019-04-30T17:15:36.997Z,39.80
2019-04-30T17:18:12.393Z,35.83
2019-04-30T17:20:49.093Z,39.35
2019-04-30T17:23:25.877Z,39.25
2019-04-30T17:26:01.190Z,40.45
2019-04-30T17:28:38.484Z,40.80
2019-04-30T17:31:13.779Z,44.42
2019-04-30T17:33:49.194Z,40.15
2019-04-30T17:36:24.669Z,38.92
2019-04-30T17:39:00.164Z,42.90
2019-04-30T17:41:37.143Z,41.35
2019-04-30T17:44:12.512Z,42.48
2019-04-30T17:46:49.725Z,42.35
2019-04-30T17:49:24.952Z,44.08
2019-04-30T17:52:00.342Z,38.15
2019-04-30T17:54:35.818Z,39.80
2019-04-30T17:57:11.212Z,42.23
2019-04-30T17:59:46.598Z,42.58
2019-04-30T18:02:23.482Z,40.67
2019-04-30T18:04:58.870Z,41.65
2019-04-30T18:07:34.274Z,41.18
2019-04-30T18:10:12.253Z,39.53
2019-04-30T18:12:47.796Z,40.35
2019-04-30T18:15:23.268Z,40.52
2019-04-30T18:18:29.883Z,36.95
2019-04-30T18:21:24.351Z,41.88
2019-04-30T18:24:30.910Z,41.10
2019-04-30T18:27:13.199Z,44.93
2019-04-30T18:29:48.460Z,39.27
2019-04-30T18:32:25.856Z,40.45
2019-04-30T18:35:01.319Z,41.55
2019-04-30T18:37:38.611Z,44.03
2019-04-30T18:40:13.886Z,43.02
2019-04-30T18:42:49.518Z,41.63
2019-04-30T18:45:24.935Z,42.48
2019-04-30T18:48:01.719Z,42.17
2019-04-30T18:50:37.249Z,43.00
2019-04-30T18:53:18.527Z,39.75
2019-04-30T18:55:53.907Z,40.00
2019-04-30T18:58:39.244Z,42.10
2019-04-30T19:01:06.650Z,43.63
2019-04-30T19:03:43.664Z,40.30
2019-04-30T19:06:26.103Z,39.78
2019-04-30T19:09:29.713Z,43.78
2019-04-30T19:12:25.301Z,41.95
2019-04-30T19:15:48.598Z,41.58
2019-04-30T19:21:06.507Z,44.03
2019-04-30T19:23:42.145Z,42.17
2019-04-30T19:26:19.018Z,45.52
2019-04-30T19:28:54.490Z,47.62
2019-04-30T19:31:30.080Z,46.35
2019-04-30T19:34:05.817Z,43.38
2019-04-30T19:36:44.223Z,48.13
2019-04-30T19:39:20.060Z,45.67
2019-04-30T19:41:55.475Z,46.00
2019-04-30T19:44:31.054Z,48.08
2019-04-30T19:47:06.570Z,49.93
2019-04-30T19:49:42.130Z,46.77
2019-04-30T19:52:19.266Z,48.75
2019-04-30T19:54:58.883Z,50.73
2019-04-30T19:57:34.339Z,48.13
2019-04-30T20:00:09.843Z,50.43
2019-04-30T20:02:45.483Z,47.25
2019-04-30T20:05:21.017Z,49.45
2019-04-30T20:07:56.430Z,51.10
2019-04-30T20:10:31.942Z,48.98
2019-04-30T20:13:07.346Z,50.88
2019-04-30T20:15:42.909Z,50.63
2019-04-30T20:18:19.102Z,50.30
2019-04-30T20:20:56.276Z,51.02
2019-04-30T20:23:31.720Z,47.73
2019-04-30T20:26:07.323Z,50.43
2019-04-30T20:28:42.770Z,48.83
2019-04-30T20:31:19.017Z,54.33
2019-04-30T20:33:54.537Z,51.60
2019-04-30T20:36:32.252Z,54.10
2019-04-30T20:39:18.253Z,55.10
2019-04-30T20:41:54.216Z,55.80
2019-04-30T20:44:29.674Z,52.60
2019-04-30T20:47:05.329Z,54.23
2019-04-30T20:49:40.690Z,59.38
2019-04-30T20:52:16.075Z,58.35
2019-04-30T20:54:51.779Z,57.00
2019-04-30T20:57:27.160Z,58.92
2019-04-30T21:00:04.100Z,55.08
2019-04-30T21:02:41.249Z,60.10
2019-04-30T21:05:16.815Z,60.12
2019-04-30T21:07:52.182Z,58.50
2019-04-30T21:10:29.251Z,62.58
2019-04-30T21:13:04.817Z,58.68
2019-04-30T21:15:40.264Z,62.55
2019-04-30T21:18:16.059Z,64.80
2019-04-30T21:20:51.517Z,62.35
2019-04-30T21:23:26.993Z,57.33
2019-04-30T21:26:08.426Z,58.87
2019-04-30T21:28:43.721Z,64.07
2019-04-30T21:31:46.885Z,63.20
2019-04-30T21:34:41.827Z,61.68
2019-04-30T21:37:17.230Z,67.00
2019-04-30T21:39:52.607Z,69.37
2019-04-30T21:42:28.082Z,63.40
2019-04-30T21:45:03.671Z,62.50
2019-04-30T21:47:39.046Z,69.92
2019-04-30T21:50:15.092Z,63.28
2019-04-30T21:52:50.549Z,64.37
2019-04-30T21:55:25.955Z,60.08
2019-04-30T21:58:01.590Z,64.97
2019-04-30T22:01:04.732Z,60.75
2019-04-30T22:03:42.343Z,64.55
2019-04-30T22:06:19.471Z,64.77
2019-04-30T22:08:55.016Z,65.32
2019-04-30T22:11:30.451Z,66.85
2019-04-30T22:14:06.067Z,66.75
2019-04-30T22:16:41.494Z,63.35
2019-04-30T22:19:16.864Z,61.80
2019-04-30T22:21:52.304Z,63.78
2019-04-30T22:24:28.285Z,63.45
2019-04-30T22:27:04.708Z,62.38
2019-04-30T22:29:42.287Z,65.52
2019-04-30T22:32:16.961Z,61.37
2019-04-30T22:34:53.918Z,62.30
2019-04-30T22:37:29.295Z,60.67
2019-04-30T22:40:06.165Z,60.67
2019-04-30T22:42:41.515Z,63.05
2019-04-30T22:45:34.311Z,64.97
2019-04-30T22:48:09.662Z,61.80
2019-04-30T22:50:45.104Z,61.88
2019-04-30T22:53:20.613Z,61.42
2019-04-30T22:55:56.012Z,56.80
2019-04-30T22:58:31.412Z,57.90
2019-04-30T23:01:21.331Z,63.10
2019-04-30T23:04:00.746Z,56.98
2019-04-30T23:06:36.144Z,56.33
2019-04-30T23:09:13.280Z,58.52
2019-04-30T23:11:49.198Z,54.83
2019-04-30T23:14:24.603Z,64.95
2019-04-30T23:17:01.674Z,63.68
2019-04-30T23:19:37.183Z,76.37
2019-04-30T23:22:12.748Z,65.32
2019-04-30T23:24:50.631Z,70.85
2019-04-30T23:27:26.758Z,73.95
2019-04-30T23:30:03.414Z,64.82
2019-04-30T23:32:39.516Z,66.30
2019-04-30T23:35:15.080Z,63.58
2019-04-30T23:37:50.427Z,66.37
2019-04-30T23:40:29.551Z,74.87
2019-04-30T23:43:05.101Z,70.45
2019-04-30T23:45:40.643Z,71.25
2019-04-30T23:48:18.187Z,71.67
2019-04-30T23:50:57.623Z,66.60
2019-04-30T23:53:33.402Z,67.05
2019-04-30T23:56:08.794Z,59.40
2019-04-30T23:58:44.395Z,62.88
